< < Back
Terminal Aerodrome Forecast


Current Version              Previous Versions:   1  2  3  4  5  6  7  8  9  

Terminal Aerodrome Forecast

474
FTUS44 KBMX 041940 AAA
TAFTCL
TAF AMD
KTCL 041940Z 0420/0518 30012G20KT P6SM SCT050
     FM050000 29013G20KT P6SM VCSH BKN050
     FM050300 31010G18KT P6SM FEW050=

Latest METAR

455
SAUS70 KWBC 042100 RRJ
MTRTCL
METAR KTCL 042053Z 26009KT 10SM SCT070 BKN090 23/08 A2978 RMK AO2 SLP083
T02280078 58024


USA.gov is the U.S. government's official web portal to all federal, state and local government web resources and services.